createdAt,value
2019-06-20T00:00:10.057Z,4.30
2019-06-20T00:00:49.420Z,3.90
2019-06-20T00:01:26.122Z,3.60
2019-06-20T00:02:02.194Z,4.08
2019-06-20T00:02:38.840Z,4.03
2019-06-20T00:03:15.749Z,3.87
2019-06-20T00:03:52.093Z,4.15
2019-06-20T00:04:29.275Z,3.70
2019-06-20T00:05:07.752Z,4.22
2019-06-20T00:05:43.982Z,4.33
2019-06-20T00:06:20.934Z,4.33
2019-06-20T00:06:57.666Z,4.70
2019-06-20T00:07:34.148Z,4.00
2019-06-20T00:08:11.032Z,3.45
2019-06-20T00:08:48.090Z,2.40
2019-06-20T00:09:24.170Z,2.60
2019-06-20T00:10:01.030Z,3.00
2019-06-20T00:10:37.645Z,2.33
2019-06-20T00:11:13.710Z,2.35
2019-06-20T00:11:50.651Z,2.25
2019-06-20T00:12:27.488Z,2.65
2019-06-20T00:13:03.668Z,2.30
2019-06-20T00:13:41.053Z,2.27
2019-06-20T00:14:18.745Z,2.52
2019-06-20T00:14:54.913Z,1.95
2019-06-20T00:15:31.861Z,2.35
2019-06-20T00:16:08.485Z,2.25
2019-06-20T00:16:44.636Z,2.15
2019-06-20T00:17:21.222Z,2.20
2019-06-20T00:17:59.326Z,2.22
2019-06-20T00:18:35.362Z,2.20
2019-06-20T00:19:12.075Z,2.00
2019-06-20T00:19:49.123Z,2.20
2019-06-20T00:20:25.485Z,1.87
2019-06-20T00:21:02.152Z,1.70
2019-06-20T00:21:38.791Z,1.75
2019-06-20T00:22:14.837Z,1.80
2019-06-20T00:22:51.945Z,1.90
2019-06-20T00:23:29.023Z,1.67
2019-06-20T00:24:05.063Z,2.00
2019-06-20T00:24:41.738Z,1.67
2019-06-20T00:25:18.722Z,1.67
2019-06-20T00:25:54.883Z,1.60
2019-06-20T00:26:32.368Z,1.85
2019-06-20T00:27:09.018Z,1.82
2019-06-20T00:27:45.165Z,1.90
2019-06-20T00:28:21.819Z,2.10
2019-06-20T00:28:58.808Z,2.10
2019-06-20T00:29:35.202Z,1.92
2019-06-20T00:30:12.335Z,2.00
2019-06-20T00:30:49.068Z,2.40
2019-06-20T00:31:25.207Z,1.80
2019-06-20T00:32:01.883Z,1.75
2019-06-20T00:32:38.527Z,1.72
2019-06-20T00:33:14.576Z,1.82
2019-06-20T00:33:51.547Z,1.65
2019-06-20T00:34:28.197Z,1.80
2019-06-20T00:35:04.355Z,1.57
2019-06-20T00:35:41.033Z,1.65
2019-06-20T00:36:18.013Z,1.60
2019-06-20T00:36:54.073Z,1.60
2019-06-20T00:37:31.132Z,1.80
2019-06-20T00:38:07.767Z,1.92
2019-06-20T00:38:43.800Z,1.70
2019-06-20T00:39:20.433Z,1.60
2019-06-20T00:39:57.501Z,1.60
2019-06-20T00:40:33.603Z,1.60
2019-06-20T00:41:10.249Z,1.80
2019-06-20T00:41:46.879Z,1.65
2019-06-20T00:42:23.338Z,1.65
2019-06-20T00:43:13.432Z,1.72
2019-06-20T00:43:38.350Z,1.40
2019-06-20T00:44:14.515Z,1.52
2019-06-20T00:44:51.126Z,1.70
2019-06-20T00:45:28.246Z,1.70
2019-06-20T00:46:04.289Z,1.70
2019-06-20T00:46:41.299Z,2.05
2019-06-20T00:47:17.940Z,1.45
2019-06-20T00:47:54.369Z,1.62
2019-06-20T00:48:31.032Z,1.30
2019-06-20T00:49:07.694Z,1.40
2019-06-20T00:49:43.826Z,1.60
2019-06-20T00:50:20.458Z,1.55
2019-06-20T00:50:57.255Z,1.55
2019-06-20T00:51:33.332Z,1.92
2019-06-20T00:52:10.290Z,1.50
2019-06-20T00:52:46.972Z,1.87
2019-06-20T00:53:23.050Z,1.55
2019-06-20T00:53:59.736Z,1.55
2019-06-20T00:54:36.379Z,1.50
2019-06-20T00:55:12.923Z,1.60
2019-06-20T00:55:49.815Z,1.65
2019-06-20T00:56:26.700Z,2.40
2019-06-20T00:57:03.108Z,2.17
2019-06-20T00:57:39.734Z,2.62
2019-06-20T00:58:16.372Z,2.00
2019-06-20T00:58:52.800Z,2.17
2019-06-20T00:59:29.728Z,1.72
2019-06-20T01:00:07.497Z,2.10
2019-06-20T01:00:43.640Z,2.27
2019-06-20T01:01:20.282Z,2.10
2019-06-20T01:01:57.330Z,2.20
2019-06-20T01:02:33.768Z,2.58
2019-06-20T01:03:10.403Z,2.27
2019-06-20T01:03:47.022Z,2.30
2019-06-20T01:04:23.066Z,2.15
2019-06-20T01:04:59.794Z,2.37
2019-06-20T01:05:36.798Z,2.00
2019-06-20T01:06:13.110Z,1.80
2019-06-20T01:06:50.115Z,2.12
2019-06-20T01:07:27.575Z,2.00
2019-06-20T01:08:03.673Z,2.15
2019-06-20T01:08:40.312Z,1.92
2019-06-20T01:09:17.361Z,2.00
2019-06-20T01:09:54.165Z,2.47
2019-06-20T01:10:30.872Z,2.45
2019-06-20T01:11:07.484Z,2.45
2019-06-20T01:11:43.799Z,2.50
2019-06-20T01:12:20.771Z,2.58
2019-06-20T01:12:57.769Z,2.77
2019-06-20T01:13:34.592Z,2.62
2019-06-20T01:14:11.360Z,1.90
2019-06-20T01:14:48.461Z,2.33
2019-06-20T01:15:24.746Z,2.47
2019-06-20T01:16:01.532Z,1.98
2019-06-20T01:16:38.852Z,2.50
2019-06-20T01:17:14.995Z,2.35
2019-06-20T01:17:52.000Z,2.00
2019-06-20T01:18:28.689Z,2.22
2019-06-20T01:19:05.144Z,2.17
2019-06-20T01:19:42.050Z,2.37
2019-06-20T01:20:19.788Z,2.00
2019-06-20T01:20:57.014Z,2.35
2019-06-20T01:21:34.107Z,2.20
2019-06-20T01:22:10.732Z,2.08
2019-06-20T01:22:46.784Z,2.42
2019-06-20T01:23:23.605Z,2.15
2019-06-20T01:24:00.264Z,2.25
2019-06-20T01:24:36.602Z,2.17
2019-06-20T01:25:13.814Z,2.25
2019-06-20T01:25:50.940Z,2.25
2019-06-20T01:26:28.079Z,2.27
2019-06-20T01:27:05.298Z,2.40
2019-06-20T01:27:42.382Z,2.40
2019-06-20T01:28:18.564Z,2.35
2019-06-20T01:28:55.218Z,2.30
2019-06-20T01:29:32.276Z,2.50
2019-06-20T01:30:09.357Z,2.42
2019-06-20T01:30:46.295Z,2.50
2019-06-20T01:31:23.280Z,2.50
2019-06-20T01:31:59.702Z,2.50
2019-06-20T01:32:36.326Z,2.65
2019-06-20T01:33:13.451Z,2.50
2019-06-20T01:33:49.887Z,2.50
2019-06-20T01:34:26.817Z,2.55
2019-06-20T01:35:03.474Z,2.33
2019-06-20T01:35:39.525Z,2.60
2019-06-20T01:36:16.179Z,2.25
2019-06-20T01:36:53.225Z,2.35
2019-06-20T01:37:29.736Z,2.10
2019-06-20T01:38:06.897Z,2.45
2019-06-20T01:38:43.845Z,2.72
2019-06-20T01:39:19.914Z,2.52
2019-06-20T01:39:56.885Z,2.45
2019-06-20T01:40:33.826Z,2.52
2019-06-20T01:41:09.885Z,2.77
2019-06-20T01:41:47.223Z,2.42
2019-06-20T01:42:24.004Z,2.45
2019-06-20T01:43:00.696Z,2.67
2019-06-20T01:43:50.067Z,2.27
2019-06-20T01:44:15.952Z,2.02
2019-06-20T01:44:51.980Z,2.40
2019-06-20T01:45:28.663Z,2.15
2019-06-20T01:46:05.294Z,2.20
2019-06-20T01:46:41.335Z,2.62
2019-06-20T01:47:17.982Z,1.82
2019-06-20T01:47:54.637Z,2.10
2019-06-20T01:48:31.250Z,2.20
2019-06-20T01:49:07.984Z,2.27
2019-06-20T01:49:44.616Z,2.05
2019-06-20T01:50:21.368Z,1.90
2019-06-20T01:50:58.738Z,2.08
2019-06-20T01:51:35.356Z,1.90
2019-06-20T01:52:11.756Z,1.70
2019-06-20T01:52:49.404Z,2.00
2019-06-20T01:53:26.148Z,2.02
2019-06-20T01:54:02.235Z,1.80
2019-06-20T01:54:38.869Z,2.17
2019-06-20T01:55:15.955Z,2.10
2019-06-20T01:55:53.089Z,1.75
2019-06-20T01:56:29.867Z,1.87
2019-06-20T01:57:06.482Z,2.00
2019-06-20T01:57:42.512Z,1.92
2019-06-20T01:58:19.585Z,1.92
2019-06-20T01:58:56.298Z,1.90
2019-06-20T01:59:32.731Z,1.70
2019-06-20T02:00:09.962Z,1.90
2019-06-20T02:00:50.838Z,2.27
2019-06-20T02:01:27.081Z,1.87
2019-06-20T02:02:03.942Z,1.80
2019-06-20T02:02:40.586Z,2.30
2019-06-20T02:03:16.998Z,1.95
2019-06-20T02:03:53.990Z,1.80
2019-06-20T02:04:31.047Z,1.80
2019-06-20T02:05:07.817Z,2.20
2019-06-20T02:05:45.063Z,1.77
2019-06-20T02:06:21.672Z,1.77
2019-06-20T02:06:57.786Z,1.70
2019-06-20T02:07:34.420Z,2.02
2019-06-20T02:08:11.142Z,1.90
2019-06-20T02:08:47.476Z,1.77
2019-06-20T02:09:24.257Z,1.90
2019-06-20T02:10:00.914Z,1.77
2019-06-20T02:10:37.324Z,2.02
2019-06-20T02:11:14.714Z,2.30
2019-06-20T02:11:51.998Z,1.87
2019-06-20T02:12:28.125Z,2.05
2019-06-20T02:13:05.471Z,1.62
2019-06-20T02:13:42.119Z,2.08
2019-06-20T02:14:18.565Z,2.00
2019-06-20T02:14:55.215Z,1.92
2019-06-20T02:15:31.849Z,2.37
2019-06-20T02:16:07.946Z,1.90
2019-06-20T02:16:44.515Z,1.62
2019-06-20T02:17:21.146Z,2.20
2019-06-20T02:17:57.317Z,1.90
2019-06-20T02:18:34.370Z,2.05
2019-06-20T02:19:10.988Z,2.02
2019-06-20T02:19:47.384Z,2.15
2019-06-20T02:20:32.279Z,2.27
2019-06-20T02:21:09.609Z,2.00
2019-06-20T02:21:45.637Z,2.08
2019-06-20T02:22:22.318Z,2.05
2019-06-20T02:22:58.990Z,2.20
2019-06-20T02:23:35.020Z,2.10
2019-06-20T02:24:11.638Z,2.22
2019-06-20T02:24:48.267Z,1.90
2019-06-20T02:25:24.667Z,1.82
2019-06-20T02:26:01.725Z,1.92
2019-06-20T02:26:38.370Z,1.92
2019-06-20T02:27:14.546Z,1.90
2019-06-20T02:27:51.174Z,2.05
2019-06-20T02:28:28.234Z,2.10
2019-06-20T02:29:04.496Z,2.00
2019-06-20T02:29:41.132Z,1.90
2019-06-20T02:30:17.972Z,1.95
2019-06-20T02:30:54.409Z,2.25
2019-06-20T02:31:31.067Z,2.10
2019-06-20T02:32:08.225Z,1.70
2019-06-20T02:32:44.370Z,2.35
2019-06-20T02:33:21.478Z,1.80
2019-06-20T02:33:58.241Z,1.92
2019-06-20T02:34:34.623Z,2.30
2019-06-20T02:35:11.662Z,2.00
2019-06-20T02:35:48.300Z,2.05
2019-06-20T02:36:24.365Z,2.20
2019-06-20T02:37:01.009Z,1.90
2019-06-20T02:37:38.011Z,2.05
2019-06-20T02:38:14.036Z,1.80
2019-06-20T02:38:50.665Z,1.95
2019-06-20T02:39:28.072Z,1.92
2019-06-20T02:40:04.825Z,2.00
2019-06-20T02:40:41.896Z,2.02
2019-06-20T02:41:18.540Z,2.22
2019-06-20T02:41:54.922Z,2.20
2019-06-20T02:42:31.963Z,1.90
2019-06-20T02:43:08.705Z,2.00
2019-06-20T02:43:45.509Z,2.20
2019-06-20T02:44:29.933Z,1.90
2019-06-20T02:45:00.846Z,1.92
2019-06-20T02:45:38.139Z,2.20
2019-06-20T02:46:15.063Z,2.00
2019-06-20T02:46:51.745Z,2.15
2019-06-20T02:47:28.579Z,2.15
2019-06-20T02:48:05.951Z,2.42
2019-06-20T02:48:42.612Z,2.30
2019-06-20T02:49:18.994Z,2.20
2019-06-20T02:49:55.638Z,2.10
2019-06-20T02:50:32.604Z,1.82
2019-06-20T02:51:08.957Z,2.37
2019-06-20T02:51:46.067Z,2.00
2019-06-20T02:52:23.216Z,2.08
2019-06-20T02:52:59.422Z,2.30
2019-06-20T02:53:37.033Z,1.95
2019-06-20T02:54:13.642Z,1.90
2019-06-20T02:54:49.723Z,2.20
2019-06-20T02:55:26.404Z,2.12
2019-06-20T02:56:03.051Z,2.12
2019-06-20T02:56:39.938Z,2.15
2019-06-20T02:57:16.912Z,2.05
2019-06-20T02:57:54.219Z,2.40
2019-06-20T02:58:31.030Z,2.42
2019-06-20T02:59:08.073Z,2.20
2019-06-20T02:59:44.792Z,2.20
2019-06-20T03:00:34.160Z,2.35
2019-06-20T03:01:11.115Z,2.52
2019-06-20T03:01:48.086Z,2.55
2019-06-20T03:02:24.159Z,2.20
2019-06-20T03:03:00.821Z,2.25
2019-06-20T03:03:37.467Z,2.10
2019-06-20T03:04:13.854Z,2.30
2019-06-20T03:04:50.484Z,2.15
2019-06-20T03:05:27.140Z,2.12
2019-06-20T03:06:03.174Z,2.40
2019-06-20T03:06:40.581Z,2.37
2019-06-20T03:07:17.356Z,2.45
2019-06-20T03:07:53.568Z,2.25
2019-06-20T03:08:30.421Z,2.33
2019-06-20T03:09:09.001Z,2.37
2019-06-20T03:09:45.134Z,2.35
2019-06-20T03:10:22.195Z,2.40
2019-06-20T03:10:59.171Z,2.50
2019-06-20T03:11:35.654Z,2.52
2019-06-20T03:12:12.584Z,2.70
2019-06-20T03:12:49.691Z,2.60
2019-06-20T03:13:26.079Z,2.30
2019-06-20T03:14:02.812Z,2.58
2019-06-20T03:14:45.411Z,2.50
2019-06-20T03:15:17.280Z,2.62
2019-06-20T03:15:53.912Z,2.67
2019-06-20T03:16:31.095Z,2.52
2019-06-20T03:17:07.119Z,2.42
2019-06-20T03:17:43.763Z,2.55
2019-06-20T03:18:20.483Z,2.35
2019-06-20T03:18:56.638Z,2.17
2019-06-20T03:19:33.350Z,2.42
2019-06-20T03:20:11.682Z,2.42
2019-06-20T03:20:47.735Z,2.42
2019-06-20T03:21:24.497Z,2.10
2019-06-20T03:22:01.954Z,2.80
2019-06-20T03:22:37.999Z,2.15
2019-06-20T03:23:14.715Z,2.47
2019-06-20T03:23:51.626Z,2.50
2019-06-20T03:24:27.759Z,2.50
2019-06-20T03:25:04.543Z,2.37
2019-06-20T03:25:41.310Z,2.77
2019-06-20T03:26:17.345Z,2.45
2019-06-20T03:26:54.762Z,2.60
2019-06-20T03:27:31.437Z,2.75
2019-06-20T03:28:07.473Z,2.50
2019-06-20T03:28:44.947Z,2.90
2019-06-20T03:29:22.062Z,2.60
2019-06-20T03:29:58.518Z,2.77
2019-06-20T03:30:35.540Z,2.80
2019-06-20T03:31:12.176Z,2.70
2019-06-20T03:31:48.227Z,2.22
2019-06-20T03:32:24.883Z,2.42
2019-06-20T03:33:01.912Z,2.22
2019-06-20T03:33:37.922Z,2.52
2019-06-20T03:34:14.613Z,3.20
2019-06-20T03:34:51.993Z,2.62
2019-06-20T03:35:28.065Z,2.40
2019-06-20T03:36:04.712Z,2.67
2019-06-20T03:36:41.410Z,2.75
2019-06-20T03:37:17.463Z,2.65
2019-06-20T03:37:54.106Z,2.22
2019-06-20T03:38:30.779Z,2.30
2019-06-20T03:39:08.020Z,2.62
2019-06-20T03:39:44.665Z,2.50
2019-06-20T03:40:21.424Z,2.50
2019-06-20T03:40:57.520Z,2.70
2019-06-20T03:41:34.180Z,2.60
2019-06-20T03:42:11.141Z,2.40
2019-06-20T03:42:47.175Z,2.77
2019-06-20T03:43:23.876Z,3.10
2019-06-20T03:44:01.194Z,2.52
2019-06-20T03:44:37.290Z,2.67
2019-06-20T03:45:14.307Z,2.70
2019-06-20T03:45:50.940Z,2.67
2019-06-20T03:46:27.341Z,2.60
2019-06-20T03:47:04.318Z,2.37
2019-06-20T03:47:41.392Z,2.83
2019-06-20T03:48:18.180Z,2.50
2019-06-20T03:48:55.320Z,2.65
2019-06-20T03:49:32.462Z,2.52
2019-06-20T03:50:09.040Z,2.62
2019-06-20T03:50:45.678Z,2.33
2019-06-20T03:51:22.600Z,3.95
2019-06-20T03:51:58.773Z,2.50
2019-06-20T03:52:36.221Z,2.70
2019-06-20T03:53:12.850Z,2.58
2019-06-20T03:53:48.901Z,2.62
2019-06-20T03:54:25.895Z,2.55
2019-06-20T03:55:02.655Z,2.15
2019-06-20T03:55:38.716Z,2.60
2019-06-20T03:56:16.740Z,2.65
2019-06-20T03:56:53.411Z,2.70
2019-06-20T03:57:29.491Z,2.77
2019-06-20T03:58:06.615Z,2.50
2019-06-20T03:58:43.226Z,2.90
2019-06-20T03:59:19.409Z,2.90
2019-06-20T03:59:56.925Z,2.50
2019-06-20T04:00:35.514Z,2.98
2019-06-20T04:01:11.841Z,2.70
2019-06-20T04:01:49.307Z,2.62
2019-06-20T04:02:26.652Z,2.50
2019-06-20T04:03:03.478Z,2.58
2019-06-20T04:03:40.507Z,2.58
2019-06-20T04:04:17.201Z,2.50
2019-06-20T04:04:54.262Z,2.60
2019-06-20T04:05:30.886Z,2.72
2019-06-20T04:06:07.798Z,2.67
2019-06-20T04:06:44.255Z,2.72
2019-06-20T04:07:20.897Z,2.85
2019-06-20T04:07:58.039Z,2.67
2019-06-20T04:08:34.164Z,2.80
2019-06-20T04:09:11.140Z,2.27
2019-06-20T04:09:48.089Z,2.45
2019-06-20T04:10:24.159Z,3.30
2019-06-20T04:11:00.900Z,2.50
2019-06-20T04:11:37.566Z,3.02
2019-06-20T04:12:13.629Z,2.72
2019-06-20T04:12:50.610Z,2.70
2019-06-20T04:13:27.792Z,2.83
2019-06-20T04:14:03.875Z,3.37
2019-06-20T04:14:40.771Z,3.00
2019-06-20T04:15:19.684Z,2.85
2019-06-20T04:15:55.868Z,3.17
2019-06-20T04:16:32.529Z,2.80
2019-06-20T04:17:09.151Z,2.95
2019-06-20T04:17:45.934Z,3.05
2019-06-20T04:18:22.537Z,3.00
2019-06-20T04:18:59.198Z,2.85
2019-06-20T04:19:35.296Z,2.80
2019-06-20T04:20:12.028Z,3.40
2019-06-20T04:20:48.903Z,3.00
2019-06-20T04:21:25.724Z,2.90
2019-06-20T04:22:02.377Z,2.92
2019-06-20T04:22:39.023Z,3.25
2019-06-20T04:23:15.070Z,3.33
2019-06-20T04:23:51.705Z,3.47
2019-06-20T04:24:28.401Z,3.10
2019-06-20T04:25:04.504Z,3.10
2019-06-20T04:25:41.137Z,3.08
2019-06-20T04:26:17.767Z,2.80
2019-06-20T04:26:54.187Z,3.17
2019-06-20T04:27:30.930Z,3.10
2019-06-20T04:28:07.871Z,3.50
2019-06-20T04:28:43.901Z,4.62
2019-06-20T04:29:20.957Z,2.87
2019-06-20T04:29:57.980Z,3.72
2019-06-20T04:30:34.351Z,2.87
2019-06-20T04:31:11.292Z,2.80
2019-06-20T04:31:48.558Z,3.80
2019-06-20T04:32:24.725Z,2.70
2019-06-20T04:33:01.376Z,3.75
2019-06-20T04:33:38.001Z,2.60
2019-06-20T04:34:14.389Z,3.17
2019-06-20T04:34:51.362Z,3.60
2019-06-20T04:35:28.329Z,3.20
2019-06-20T04:36:04.390Z,3.25
2019-06-20T04:36:41.026Z,2.70
2019-06-20T04:37:17.650Z,2.92
2019-06-20T04:37:53.711Z,2.80
2019-06-20T04:38:30.384Z,3.30
2019-06-20T04:39:18.788Z,3.20
2019-06-20T04:39:45.739Z,3.58
2019-06-20T04:40:23.808Z,2.80
2019-06-20T04:41:00.489Z,2.58
2019-06-20T04:41:36.654Z,3.20
2019-06-20T04:42:13.275Z,2.87
2019-06-20T04:42:50.611Z,3.37
2019-06-20T04:43:27.411Z,2.90
2019-06-20T04:44:04.071Z,2.70
2019-06-20T04:44:40.813Z,2.80
2019-06-20T04:45:35.591Z,3.08
2019-06-20T04:46:16.785Z,3.17
2019-06-20T04:46:59.004Z,2.87
2019-06-20T04:47:35.389Z,3.10
2019-06-20T04:48:12.709Z,2.58
2019-06-20T04:48:49.680Z,3.12
2019-06-20T04:49:26.401Z,2.83
2019-06-20T04:50:03.595Z,3.12
2019-06-20T04:50:40.347Z,2.92
2019-06-20T04:51:16.673Z,3.15
2019-06-20T04:51:53.662Z,2.72
2019-06-20T04:52:30.256Z,2.83
2019-06-20T04:53:06.327Z,3.22
2019-06-20T04:53:42.961Z,2.70
2019-06-20T04:54:19.754Z,2.98
2019-06-20T04:54:55.901Z,3.27
2019-06-20T04:55:32.984Z,2.98
2019-06-20T04:56:09.599Z,2.67
2019-06-20T04:56:45.623Z,3.20
2019-06-20T04:57:22.248Z,2.90
2019-06-20T04:57:59.250Z,2.83
2019-06-20T04:58:35.351Z,3.22
2019-06-20T04:59:12.393Z,2.67
2019-06-20T04:59:51.485Z,3.05
2019-06-20T05:00:28.077Z,3.00
2019-06-20T05:01:04.726Z,3.08
2019-06-20T05:01:41.774Z,2.92
2019-06-20T05:02:19.757Z,2.70
2019-06-20T05:02:56.420Z,2.83
2019-06-20T05:03:33.155Z,2.60
2019-06-20T05:04:10.094Z,3.30
2019-06-20T05:04:46.812Z,2.90
2019-06-20T05:05:23.638Z,2.92
2019-06-20T05:06:00.984Z,3.27
2019-06-20T05:06:37.077Z,2.50
2019-06-20T05:07:19.932Z,3.20
2019-06-20T05:07:57.075Z,2.80
2019-06-20T05:08:33.431Z,2.70
2019-06-20T05:09:10.109Z,3.10
2019-06-20T05:09:46.765Z,2.83
2019-06-20T05:10:22.834Z,3.37
2019-06-20T05:10:59.778Z,2.77
2019-06-20T05:11:36.762Z,3.08
2019-06-20T05:12:12.788Z,2.87
2019-06-20T05:12:49.451Z,3.00
2019-06-20T05:13:26.094Z,3.00
2019-06-20T05:14:02.791Z,3.30
2019-06-20T05:14:40.004Z,2.95
2019-06-20T05:15:16.737Z,3.25
2019-06-20T05:15:53.459Z,2.83
2019-06-20T05:16:30.322Z,2.75
2019-06-20T05:17:07.404Z,3.05
2019-06-20T05:17:43.525Z,3.05
2019-06-20T05:18:20.448Z,3.00
2019-06-20T05:18:57.428Z,2.90
2019-06-20T05:19:33.496Z,3.10
2019-06-20T05:20:10.432Z,2.90
2019-06-20T05:20:47.459Z,3.42
2019-06-20T05:21:24.064Z,3.25
2019-06-20T05:22:00.747Z,3.75
2019-06-20T05:22:38.120Z,3.05
2019-06-20T05:23:14.552Z,3.15
2019-06-20T05:23:51.857Z,3.47
2019-06-20T05:24:28.482Z,3.00
2019-06-20T05:25:04.688Z,3.75
2019-06-20T05:25:41.329Z,2.90
2019-06-20T05:26:18.296Z,3.92
2019-06-20T05:26:54.739Z,3.00
2019-06-20T05:27:31.752Z,3.95
2019-06-20T05:28:08.389Z,3.40
2019-06-20T05:28:44.424Z,3.42
2019-06-20T05:29:21.041Z,3.45
2019-06-20T05:29:57.768Z,2.90
2019-06-20T05:30:34.185Z,3.75
2019-06-20T05:31:10.959Z,2.87
2019-06-20T05:31:47.674Z,3.27
2019-06-20T05:32:24.001Z,3.40
2019-06-20T05:33:00.818Z,3.10
2019-06-20T05:33:37.835Z,3.47
2019-06-20T05:34:13.857Z,2.83
2019-06-20T05:34:50.548Z,3.65
2019-06-20T05:35:27.257Z,3.08
2019-06-20T05:36:03.367Z,3.10
2019-06-20T05:36:40.041Z,3.87
2019-06-20T05:37:16.667Z,3.08
2019-06-20T05:37:53.019Z,3.80
2019-06-20T05:38:29.707Z,3.20
2019-06-20T05:39:07.545Z,3.17
2019-06-20T05:39:43.571Z,3.67
2019-06-20T05:40:20.425Z,3.25
2019-06-20T05:40:57.663Z,3.40
2019-06-20T05:41:34.343Z,3.58
2019-06-20T05:42:11.367Z,3.62
2019-06-20T05:42:48.006Z,3.60
2019-06-20T05:43:24.442Z,3.55
2019-06-20T05:44:01.106Z,3.65
2019-06-20T05:44:37.719Z,3.98
2019-06-20T05:45:14.978Z,3.22
2019-06-20T05:46:05.472Z,3.52
2019-06-20T05:46:30.327Z,3.77
2019-06-20T05:47:12.431Z,3.55
2019-06-20T05:47:45.471Z,3.37
2019-06-20T05:48:22.081Z,3.10
2019-06-20T05:48:58.512Z,3.17
2019-06-20T05:49:35.767Z,3.50
2019-06-20T05:50:13.395Z,3.33
2019-06-20T05:50:49.708Z,2.92
2019-06-20T05:51:26.453Z,3.25
2019-06-20T05:52:03.733Z,3.70
2019-06-20T05:52:39.773Z,3.62
2019-06-20T05:53:16.393Z,3.47
2019-06-20T05:53:53.747Z,3.50
2019-06-20T05:54:30.183Z,3.25
2019-06-20T05:55:07.564Z,3.22
2019-06-20T05:55:44.467Z,3.42
2019-06-20T05:56:20.852Z,3.58
2019-06-20T05:56:57.735Z,3.20
2019-06-20T05:57:34.719Z,3.67
2019-06-20T05:58:10.779Z,3.83
2019-06-20T05:58:47.876Z,3.85
2019-06-20T05:59:25.721Z,3.50
2019-06-20T06:00:01.924Z,3.70
2019-06-20T06:00:38.869Z,3.33
2019-06-20T06:01:15.598Z,4.00
2019-06-20T06:01:55.377Z,3.58
2019-06-20T06:02:30.828Z,3.52
2019-06-20T06:03:07.809Z,3.52
2019-06-20T06:03:44.264Z,3.37
2019-06-20T06:04:21.250Z,3.62
2019-06-20T06:04:58.593Z,3.83
2019-06-20T06:05:35.042Z,3.35
2019-06-20T06:06:12.528Z,3.98
2019-06-20T06:06:49.186Z,4.10
2019-06-20T06:07:25.637Z,4.25
2019-06-20T06:08:02.295Z,3.70
2019-06-20T06:08:39.144Z,3.67
2019-06-20T06:09:15.960Z,3.52
2019-06-20T06:09:52.568Z,3.67
2019-06-20T06:10:29.751Z,3.95
2019-06-20T06:11:05.949Z,3.47
2019-06-20T06:11:42.595Z,3.40
2019-06-20T06:12:19.892Z,3.90
2019-06-20T06:12:56.514Z,3.17
2019-06-20T06:13:33.202Z,3.70
2019-06-20T06:14:09.800Z,3.98
2019-06-20T06:14:45.850Z,3.42
2019-06-20T06:15:22.499Z,3.42
2019-06-20T06:16:00.259Z,3.40
2019-06-20T06:16:36.721Z,3.83
2019-06-20T06:17:13.337Z,3.70
2019-06-20T06:17:49.962Z,3.17
2019-06-20T06:18:26.084Z,3.60
2019-06-20T06:19:03.278Z,3.87
2019-06-20T06:19:40.223Z,3.62
2019-06-20T06:20:16.703Z,3.70
2019-06-20T06:20:53.330Z,3.92
2019-06-20T06:21:30.002Z,3.45
2019-06-20T06:22:06.065Z,3.70
2019-06-20T06:22:44.728Z,3.30
2019-06-20T06:23:21.190Z,3.50
2019-06-20T06:23:57.407Z,3.85
2019-06-20T06:24:34.066Z,3.22
2019-06-20T06:25:11.001Z,3.75
2019-06-20T06:25:47.432Z,3.62
2019-06-20T06:26:24.076Z,3.67
2019-06-20T06:27:00.789Z,4.12
2019-06-20T06:27:37.193Z,3.25
2019-06-20T06:28:13.846Z,3.50
2019-06-20T06:28:50.548Z,3.40
2019-06-20T06:29:26.922Z,3.45
2019-06-20T06:30:04.096Z,3.70
2019-06-20T06:30:40.735Z,3.52
2019-06-20T06:31:16.858Z,3.45
2019-06-20T06:31:53.500Z,3.75
2019-06-20T06:32:39.604Z,3.60
2019-06-20T06:33:09.793Z,3.65
2019-06-20T06:33:46.463Z,3.62
2019-06-20T06:34:23.127Z,3.95
2019-06-20T06:34:59.674Z,3.55
2019-06-20T06:35:36.638Z,3.85
2019-06-20T06:36:13.251Z,3.35
2019-06-20T06:36:49.299Z,3.50
2019-06-20T06:37:27.053Z,3.90
2019-06-20T06:38:03.809Z,3.27
2019-06-20T06:38:39.949Z,4.05
2019-06-20T06:39:16.667Z,3.87
2019-06-20T06:39:54.093Z,3.90
2019-06-20T06:40:30.271Z,4.35
2019-06-20T06:41:07.208Z,4.20
2019-06-20T06:41:44.507Z,3.77
2019-06-20T06:42:21.269Z,3.40
2019-06-20T06:42:58.045Z,3.83
2019-06-20T06:43:34.699Z,3.55
2019-06-20T06:44:10.707Z,3.67
2019-06-20T06:44:47.331Z,3.90
2019-06-20T06:45:24.129Z,3.70
2019-06-20T06:46:00.299Z,3.50
2019-06-20T06:46:44.994Z,3.70
2019-06-20T06:47:15.231Z,3.25
2019-06-20T06:47:51.222Z,3.40
2019-06-20T06:48:28.193Z,3.45
2019-06-20T06:49:05.441Z,3.83
2019-06-20T06:49:41.507Z,3.42
2019-06-20T06:50:18.162Z,3.27
2019-06-20T06:50:55.411Z,3.55
2019-06-20T06:51:31.542Z,3.60
2019-06-20T06:52:08.159Z,3.58
2019-06-20T06:52:45.436Z,3.62
2019-06-20T06:53:21.468Z,3.50
2019-06-20T06:53:58.469Z,3.30
2019-06-20T06:54:35.556Z,3.60
2019-06-20T06:55:13.215Z,3.55
2019-06-20T06:55:50.204Z,3.70
2019-06-20T06:56:27.525Z,3.58
2019-06-20T06:57:03.629Z,3.40
2019-06-20T06:57:40.223Z,2.75
2019-06-20T06:58:16.921Z,3.35
2019-06-20T06:58:52.993Z,3.40
2019-06-20T06:59:29.787Z,3.30
2019-06-20T07:00:08.822Z,3.72
2019-06-20T07:00:44.889Z,3.40
2019-06-20T07:01:22.157Z,3.45
2019-06-20T07:01:58.785Z,3.17
2019-06-20T07:02:34.838Z,3.83
2019-06-20T07:03:11.458Z,3.50
2019-06-20T07:03:48.523Z,4.08
2019-06-20T07:04:24.800Z,3.47
2019-06-20T07:05:01.701Z,3.40
2019-06-20T07:05:38.505Z,3.42
2019-06-20T07:06:14.553Z,3.10
2019-06-20T07:06:51.191Z,3.85
2019-06-20T07:07:27.845Z,3.08
2019-06-20T07:08:04.214Z,3.25
2019-06-20T07:08:41.162Z,3.65
2019-06-20T07:09:17.774Z,3.70
2019-06-20T07:09:53.803Z,3.70
2019-06-20T07:10:30.904Z,3.52
2019-06-20T07:11:07.907Z,3.42
2019-06-20T07:11:43.932Z,4.10
2019-06-20T07:12:20.546Z,3.25
2019-06-20T07:12:57.234Z,3.65
2019-06-20T07:13:33.313Z,3.42
2019-06-20T07:14:09.945Z,3.50
2019-06-20T07:14:46.570Z,3.75
2019-06-20T07:15:23.010Z,3.50
2019-06-20T07:15:59.740Z,3.42
2019-06-20T07:16:36.340Z,3.40
2019-06-20T07:17:12.973Z,3.30
2019-06-20T07:17:49.933Z,3.30
2019-06-20T07:18:26.967Z,3.42
2019-06-20T07:19:03.139Z,3.30
2019-06-20T07:19:40.018Z,3.62
2019-06-20T07:20:17.053Z,3.65
2019-06-20T07:20:53.118Z,3.25
2019-06-20T07:21:29.803Z,2.72
2019-06-20T07:22:06.489Z,3.72
2019-06-20T07:22:42.819Z,3.42
2019-06-20T07:23:19.440Z,3.50
2019-06-20T07:23:56.144Z,3.85
2019-06-20T07:24:32.912Z,3.33
2019-06-20T07:25:09.965Z,3.15
2019-06-20T07:25:46.851Z,2.85
2019-06-20T07:26:23.209Z,3.37
2019-06-20T07:26:59.907Z,3.30
2019-06-20T07:27:36.805Z,3.22
2019-06-20T07:28:12.858Z,3.30
2019-06-20T07:28:51.564Z,3.00
2019-06-20T07:29:28.294Z,3.20
2019-06-20T07:30:05.648Z,3.20
2019-06-20T07:30:42.272Z,3.27
2019-06-20T07:31:19.282Z,3.17
2019-06-20T07:31:55.476Z,3.08
2019-06-20T07:32:32.129Z,2.95
2019-06-20T07:33:08.765Z,2.87
2019-06-20T07:33:45.105Z,3.30
2019-06-20T07:34:21.838Z,2.90
2019-06-20T07:34:58.680Z,3.00
2019-06-20T07:35:35.417Z,2.83
2019-06-20T07:36:12.092Z,3.20
2019-06-20T07:36:48.708Z,2.92
2019-06-20T07:37:25.070Z,2.90
2019-06-20T07:38:02.151Z,3.20
2019-06-20T07:38:38.842Z,2.85
2019-06-20T07:39:14.876Z,2.85
2019-06-20T07:39:51.882Z,3.00
2019-06-20T07:40:28.756Z,2.65
2019-06-20T07:41:05.230Z,2.75
2019-06-20T07:41:41.871Z,2.77
2019-06-20T07:42:18.639Z,3.00
2019-06-20T07:42:54.979Z,3.02
2019-06-20T07:43:31.633Z,3.02
2019-06-20T07:44:08.638Z,2.90
2019-06-20T07:44:44.968Z,3.15
2019-06-20T07:45:27.614Z,2.50
2019-06-20T07:46:04.988Z,2.72
2019-06-20T07:46:41.039Z,2.83
2019-06-20T07:47:18.242Z,2.65
2019-06-20T07:47:54.986Z,2.33
2019-06-20T07:48:31.129Z,2.55
2019-06-20T07:49:08.548Z,2.60
2019-06-20T07:49:45.200Z,2.60
2019-06-20T07:50:21.777Z,2.90
2019-06-20T07:50:58.740Z,2.60
2019-06-20T07:51:35.400Z,3.40
2019-06-20T07:52:11.989Z,2.70
2019-06-20T07:53:01.423Z,2.80
2019-06-20T07:53:27.080Z,2.25
2019-06-20T07:54:03.595Z,2.55
2019-06-20T07:54:40.320Z,2.70
2019-06-20T07:55:16.934Z,2.85
2019-06-20T07:55:53.042Z,2.67
2019-06-20T07:56:29.807Z,2.65
2019-06-20T07:57:06.440Z,2.72
2019-06-20T07:57:42.535Z,2.77
2019-06-20T07:58:19.585Z,2.47
2019-06-20T07:58:56.618Z,2.47
2019-06-20T07:59:32.729Z,2.40
2019-06-20T08:00:11.062Z,2.45
2019-06-20T08:00:47.990Z,2.65
2019-06-20T08:01:24.160Z,2.25
2019-06-20T08:02:00.803Z,3.15
2019-06-20T08:02:37.784Z,2.47
2019-06-20T08:03:13.815Z,2.37
2019-06-20T08:03:50.796Z,2.65
2019-06-20T08:04:28.088Z,2.58
2019-06-20T08:05:04.539Z,2.52
2019-06-20T08:05:41.545Z,2.50
2019-06-20T08:06:18.236Z,2.83
2019-06-20T08:06:54.363Z,2.60
2019-06-20T08:07:31.042Z,2.52
2019-06-20T08:08:07.671Z,2.87
2019-06-20T08:08:44.289Z,2.98
2019-06-20T08:09:22.168Z,2.65
2019-06-20T08:09:58.879Z,2.55